Time;durP1;ratioP1;P1;durP2;ratioP2;P2;SDS_P1;SDS_P2;PMS_P1;PMS_P2;Temp;Humidity;BMP_temperature;BMP_pressure;BME280_temperature;BME280_humidity;BME280_pressure;Samples;Min_cycle;Max_cycle;Signal;HPM_P1;HPM_P2
2021/05/01 00:02:05;;;;;;;6.97;4.80;;;;;;;13.99;81.50;100138.22;1721523;82;21110;-42
2021/05/01 00:04:32;;;;;;;6.05;5.33;;;;;;;13.98;81.46;100145.87;1693854;82;21164;-39
2021/05/01 00:07:00;;;;;;;5.47;4.90;;;;;;;13.99;81.40;100152.97;1714260;82;21160;-44
2021/05/01 00:09:28;;;;;;;5.20;4.40;;;;;;;13.98;81.33;100144.05;1718598;82;21169;-43
2021/05/01 00:11:56;;;;;;;7.62;5.37;;;;;;;13.96;81.29;100143.34;1716023;82;21154;-39
2021/05/01 00:14:27;;;;;;;6.83;5.33;;;;;;;13.93;81.22;100144.89;1721198;82;21585;-41
2021/05/01 00:16:55;;;;;;;6.80;5.30;;;;;;;13.91;81.23;100150.00;1721733;82;21508;-39
2021/05/01 00:19:24;;;;;;;7.65;5.85;;;;;;;13.90;81.21;100144.29;1716549;82;21146;-44
2021/05/01 00:21:52;;;;;;;6.90;5.20;;;;;;;13.89;81.17;100146.13;1705066;82;21145;-41
2021/05/01 00:24:19;;;;;;;5.62;4.95;;;;;;;13.88;81.21;100137.69;1710945;82;21120;-43
2021/05/01 00:26:47;;;;;;;6.42;5.00;;;;;;;13.89;81.16;100138.08;1726650;82;21153;-42
2021/05/01 00:29:15;;;;;;;7.03;4.92;;;;;;;13.89;80.98;100136.74;1713637;82;21898;-42
2021/05/01 00:31:43;;;;;;;9.93;5.58;;;;;;;13.89;80.76;100135.40;1714351;82;21161;-40
2021/05/01 00:34:10;;;;;;;6.45;4.97;;;;;;;13.91;80.42;100135.27;1708661;82;21161;-43
2021/05/01 00:36:38;;;;;;;7.78;5.37;;;;;;;13.90;80.02;100130.89;1709096;82;21123;-41
2021/05/01 00:39:06;;;;;;;5.60;4.83;;;;;;;13.91;79.75;100129.44;1713162;82;21145;-40
2021/05/01 00:41:34;;;;;;;6.85;5.50;;;;;;;13.88;79.55;100130.99;1715017;82;21668;-44
2021/05/01 00:44:07;;;;;;;6.53;5.22;;;;;;;13.88;79.44;100140.87;1717054;82;21133;-41
2021/05/01 00:46:34;;;;;;;5.65;4.30;;;;;;;13.88;79.29;100144.39;1709538;82;21554;-43
2021/05/01 00:49:03;;;;;;;6.15;5.03;;;;;;;13.87;79.07;100146.72;1717233;82;21184;-42
2021/05/01 00:51:33;;;;;;;6.85;5.30;;;;;;;13.85;78.83;100145.98;1718323;82;21165;-42
2021/05/01 00:54:00;;;;;;;5.28;4.15;;;;;;;13.83;78.57;100152.81;1714903;82;21228;-41
2021/05/01 00:56:28;;;;;;;7.47;4.67;;;;;;;13.82;78.18;100152.92;1718436;82;21613;-41
2021/05/01 00:58:56;;;;;;;5.20;4.20;;;;;;;13.79;77.74;100153.16;1709671;82;21154;-42
2021/05/01 01:01:25;;;;;;;4.53;3.70;;;;;;;13.76;77.38;100161.45;1712470;82;21129;-42
2021/05/01 01:03:52;;;;;;;4.50;3.75;;;;;;;13.71;77.05;100168.49;1710482;82;21138;-41
2021/05/01 01:06:20;;;;;;;4.95;3.47;;;;;;;13.69;76.82;100172.27;1713985;82;21142;-42
2021/05/01 01:08:48;;;;;;;4.33;3.92;;;;;;;13.63;76.65;100175.78;1716231;82;21843;-42
2021/05/01 01:11:15;;;;;;;3.85;3.00;;;;;;;13.60;76.46;100174.64;1680842;83;21161;-42
2021/05/01 01:13:46;;;;;;;9.93;3.87;;;;;;;13.55;76.29;100171.46;1678581;83;21304;-42
2021/05/01 01:16:13;;;;;;;3.40;2.77;;;;;;;13.52;76.02;100169.52;1702108;82;21134;-43
2021/05/01 01:18:41;;;;;;;3.65;3.00;;;;;;;13.46;75.83;100178.02;1699972;82;21613;-39
2021/05/01 01:21:10;;;;;;;4.03;3.62;;;;;;;13.40;75.78;100176.14;1702736;82;21145;-42
2021/05/01 01:23:37;;;;;;;5.65;4.15;;;;;;;13.35;75.86;100173.45;1699610;82;21155;-42
2021/05/01 01:26:06;;;;;;;4.00;3.60;;;;;;;13.31;75.88;100179.53;1697078;82;21125;-38
2021/05/01 01:28:33;;;;;;;4.75;4.03;;;;;;;13.25;75.99;100183.11;1701404;82;21166;-43
2021/05/01 01:31:01;;;;;;;5.80;4.53;;;;;;;13.21;76.08;100187.36;1703802;82;21145;-43
2021/05/01 01:33:30;;;;;;;5.20;4.22;;;;;;;13.15;76.16;100189.16;1707963;82;21149;-41
2021/05/01 01:35:58;;;;;;;8.65;7.62;;;;;;;13.09;76.22;100184.73;1713120;82;21156;-39
2021/05/01 01:38:25;;;;;;;7.40;6.28;;;;;;;13.05;76.19;100188.59;1708100;82;21553;-42
2021/05/01 01:40:53;;;;;;;7.85;7.05;;;;;;;13.01;76.14;100196.50;1712496;82;21145;-40
2021/05/01 01:43:21;;;;;;;7.58;4.97;;;;;;;12.97;76.05;100195.36;1704033;82;21166;-40
2021/05/01 01:45:48;;;;;;;4.70;4.20;;;;;;;12.96;75.97;100204.86;1706467;82;21166;-40
2021/05/01 01:48:16;;;;;;;6.10;4.65;;;;;;;12.95;75.89;100204.47;1705058;82;21141;-40
2021/05/01 01:50:43;;;;;;;5.67;4.15;;;;;;;12.93;75.85;100207.27;1701813;82;21150;-40
2021/05/01 01:53:12;;;;;;;5.08;4.37;;;;;;;12.89;75.80;100204.43;1696834;82;21198;-39
2021/05/01 01:55:40;;;;;;;4.95;4.35;;;;;;;12.87;75.72;100207.70;1699861;82;21126;-41
2021/05/01 01:58:08;;;;;;;4.33;3.90;;;;;;;12.85;75.96;100214.13;1673898;84;21123;-41
2021/05/01 02:00:36;;;;;;;4.47;4.08;;;;;;;12.83;76.02;100214.74;1696205;82;21125;-41
2021/05/01 02:03:04;;;;;;;5.12;4.20;;;;;;;12.78;76.08;100210.56;1705493;82;22036;-41
2021/05/01 02:05:33;;;;;;;5.20;4.53;;;;;;;12.75;76.15;100220.16;1685817;82;21174;-40
2021/05/01 02:08:01;;;;;;;5.55;4.22;;;;;;;12.70;76.19;100224.10;1697564;82;21173;-42
2021/05/01 02:10:29;;;;;;;4.60;3.77;;;;;;;12.67;76.34;100222.50;1694396;82;21182;-39
2021/05/01 02:12:57;;;;;;;4.25;3.72;;;;;;;12.64;76.16;100225.41;1683988;83;21198;-41
2021/05/01 02:15:26;;;;;;;4.78;4.00;;;;;;;12.61;75.89;100237.66;1709907;82;21131;-43
2021/05/01 02:17:54;;;;;;;4.00;3.60;;;;;;;12.59;75.72;100240.92;1704652;82;21110;-40
2021/05/01 02:20:26;;;;;;;4.92;4.12;;;;;;;12.54;75.68;100245.25;1714887;82;21466;-47
2021/05/01 02:22:54;;;;;;;5.70;4.05;;;;;;;12.44;75.87;100254.89;1718617;82;21141;-41
2021/05/01 02:25:22;;;;;;;5.35;3.95;;;;;;;12.35;76.20;100250.20;1711836;82;21165;-40
2021/05/01 02:27:49;;;;;;;5.10;3.60;;;;;;;12.34;76.32;100249.80;1717558;82;21149;-43
2021/05/01 02:30:22;;;;;;;4.67;4.00;;;;;;;12.32;76.33;100252.61;1710995;82;21552;-43
2021/05/01 02:32:50;;;;;;;3.37;2.95;;;;;;;12.30;76.19;100251.85;1714578;82;21197;-42
2021/05/01 02:35:21;;;;;;;2.87;2.60;;;;;;;12.27;75.88;100249.39;1713986;82;21194;-43
2021/05/01 02:37:49;;;;;;;3.17;2.40;;;;;;;12.23;75.68;100254.56;1711561;82;21108;-44
2021/05/01 02:40:17;;;;;;;3.83;2.33;;;;;;;12.20;75.54;100245.43;1708576;82;21145;-46
2021/05/01 02:42:45;;;;;;;2.72;2.45;;;;;;;12.19;75.46;100258.41;1706044;82;21177;-42
2021/05/01 02:45:16;;;;;;;3.00;2.20;;;;;;;12.15;75.36;100258.26;1711014;82;21173;-41
2021/05/01 02:47:44;;;;;;;4.87;4.17;;;;;;;12.15;75.38;100264.09;1713017;82;21157;-44
2021/05/01 02:50:12;;;;;;;4.42;4.03;;;;;;;12.13;75.38;100262.36;1703635;82;21153;-42
2021/05/01 02:52:40;;;;;;;3.33;2.47;;;;;;;12.11;75.23;100264.76;1712930;82;21162;-42
2021/05/01 02:55:09;;;;;;;2.60;2.30;;;;;;;12.08;75.23;100260.97;1719553;80;21215;-41
2021/05/01 02:57:37;;;;;;;2.37;1.95;;;;;;;12.06;75.25;100260.20;1719179;82;21155;-43
2021/05/01 03:00:11;;;;;;;2.40;1.98;;;;;;;12.02;75.11;100262.70;1713455;82;21593;-43
2021/05/01 03:02:39;;;;;;;2.42;2.00;;;;;;;11.99;75.03;100266.44;1727934;82;21138;-43
2021/05/01 03:05:08;;;;;;;2.27;2.00;;;;;;;11.97;74.97;100267.05;1711096;82;21161;-41
2021/05/01 03:07:36;;;;;;;3.00;2.55;;;;;;;11.94;74.83;100265.89;1715959;82;21585;-42
2021/05/01 03:10:10;;;;;;;2.92;2.10;;;;;;;11.92;74.81;100274.52;1698935;82;21142;-41
2021/05/01 03:12:38;;;;;;;3.65;2.55;;;;;;;11.93;74.87;100277.55;1699372;82;21198;-45
2021/05/01 03:15:07;;;;;;;2.55;2.33;;;;;;;11.89;75.09;100274.25;1687994;82;21162;-44
2021/05/01 03:17:34;;;;;;;2.58;2.00;;;;;;;11.88;75.29;100281.86;1686850;82;21193;-43
2021/05/01 03:20:04;;;;;;;3.70;3.10;;;;;;;11.89;75.42;100283.59;1689122;82;21644;-41
2021/05/01 03:22:32;;;;;;;3.52;3.20;;;;;;;11.88;75.50;100287.21;1695431;82;21134;-42
2021/05/01 03:24:59;;;;;;;5.55;4.42;;;;;;;11.89;75.79;100293.41;1694938;82;21211;-42
2021/05/01 03:27:27;;;;;;;4.35;3.95;;;;;;;11.90;76.39;100290.64;1710719;82;21118;-40
2021/05/01 03:29:55;;;;;;;4.03;3.62;;;;;;;11.92;76.92;100293.22;1694442;82;21449;-44
2021/05/01 03:32:23;;;;;;;5.15;4.12;;;;;;;11.93;77.33;100300.27;1715987;82;21146;-41
2021/05/01 03:34:51;;;;;;;5.95;5.17;;;;;;;11.95;77.68;100298.84;1702352;82;21590;-40
2021/05/01 03:37:18;;;;;;;7.12;5.10;;;;;;;11.97;78.07;100303.58;1699745;82;21140;-43
2021/05/01 03:39:46;;;;;;;6.22;5.10;;;;;;;12.00;78.37;100303.40;1695920;82;21150;-46
2021/05/01 03:42:14;;;;;;;6.47;5.03;;;;;;;12.04;78.67;100302.20;1698788;82;21157;-42
2021/05/01 03:44:41;;;;;;;7.83;5.80;;;;;;;12.07;79.01;100304.22;1710667;82;21170;-43
2021/05/01 03:47:10;;;;;;;7.47;5.92;;;;;;;12.11;79.26;100308.86;1696135;82;21562;-45
2021/05/01 03:49:38;;;;;;;9.58;6.92;;;;;;;12.16;79.54;100312.56;1690559;83;21152;-42
2021/05/01 03:52:06;;;;;;;8.18;7.03;;;;;;;12.19;79.74;100311.86;1700803;82;21146;-40
2021/05/01 03:54:34;;;;;;;7.45;6.50;;;;;;;12.23;79.96;100312.04;1696799;82;21190;-46
2021/05/01 03:57:02;;;;;;;7.22;6.47;;;;;;;12.26;80.14;100315.84;1697635;82;21118;-43
2021/05/01 03:59:30;;;;;;;7.53;6.70;;;;;;;12.28;80.31;100324.62;1709959;82;21448;-43
2021/05/01 04:01:57;;;;;;;8.33;7.28;;;;;;;12.32;80.51;100325.25;1697797;82;21169;-44
2021/05/01 04:04:27;;;;;;;9.33;8.13;;;;;;;12.35;80.66;100326.41;1700779;82;21324;-42
2021/05/01 04:06:55;;;;;;;12.47;9.85;;;;;;;12.40;80.89;100340.77;1697512;82;21138;-43
2021/05/01 04:09:23;;;;;;;9.50;8.28;;;;;;;12.43;81.17;100345.93;1687073;82;21283;-41
2021/05/01 04:11:51;;;;;;;8.75;7.03;;;;;;;12.45;81.44;100355.56;1705810;82;21146;-40
2021/05/01 04:14:19;;;;;;;10.23;7.65;;;;;;;12.49;81.65;100349.52;1704210;83;21145;-43
2021/05/01 04:16:46;;;;;;;9.30;7.83;;;;;;;12.51;81.93;100350.27;1695771;82;21182;-45
2021/05/01 04:19:14;;;;;;;9.60;7.35;;;;;;;12.55;82.13;100353.12;1716198;82;21804;-40
2021/05/01 04:21:42;;;;;;;9.18;8.25;;;;;;;12.60;82.23;100348.77;1720054;82;21161;-39
2021/05/01 04:24:09;;;;;;;25.50;8.95;;;;;;;12.64;82.34;100355.14;1720626;81;21169;-42
2021/05/01 04:26:37;;;;;;;10.50;9.00;;;;;;;12.70;82.43;100360.09;1646519;85;21162;-37
2021/05/01 04:29:05;;;;;;;8.55;7.65;;;;;;;12.75;82.48;100357.95;1702159;82;21118;-43
2021/05/01 04:31:32;;;;;;;11.03;8.55;;;;;;;12.80;82.58;100356.30;1706301;82;21594;-40
2021/05/01 04:34:00;;;;;;;10.98;8.68;;;;;;;12.84;82.70;100352.91;1707635;82;21197;-40
2021/05/01 04:36:28;;;;;;;10.95;9.20;;;;;;;12.89;82.74;100355.63;1709447;82;21141;-39
2021/05/01 04:38:55;;;;;;;9.93;8.08;;;;;;;12.95;82.78;100360.57;1708041;82;21161;-42
2021/05/01 04:41:23;;;;;;;9.15;8.18;;;;;;;12.99;82.87;100351.83;1705062;82;21664;-41
2021/05/01 04:43:52;;;;;;;10.40;9.00;;;;;;;13.06;82.95;100356.28;1701134;82;21145;-41
2021/05/01 04:46:19;;;;;;;11.00;9.08;;;;;;;13.13;83.13;100361.58;1707477;82;21178;-41
2021/05/01 04:48:47;;;;;;;11.83;9.98;;;;;;;13.17;83.29;100363.05;1711939;83;21157;-40
2021/05/01 04:51:18;;;;;;;15.90;8.93;;;;;;;13.23;83.43;100361.75;1711784;82;21146;-40
2021/05/01 04:53:46;;;;;;;9.93;8.63;;;;;;;13.27;83.60;100361.46;1685530;82;21161;-43
2021/05/01 04:56:13;;;;;;;10.63;9.13;;;;;;;13.33;83.73;100357.02;1715998;82;21169;-42
2021/05/01 04:58:41;;;;;;;9.50;8.50;;;;;;;13.40;83.73;100352.91;1712310;82;21589;-43
2021/05/01 05:01:09;;;;;;;9.33;8.30;;;;;;;13.46;83.74;100348.95;1715050;82;21133;-40
2021/05/01 05:03:36;;;;;;;13.40;10.55;;;;;;;13.51;83.71;100352.16;1708351;82;21557;-39
2021/05/01 05:06:04;;;;;;;17.23;9.05;;;;;;;13.57;83.72;100351.69;1714527;82;21138;-40
2021/05/01 05:08:32;;;;;;;12.45;8.73;;;;;;;13.64;83.78;100350.77;1709976;83;21154;-42
2021/05/01 05:11:00;;;;;;;10.08;8.58;;;;;;;13.71;83.78;100348.02;1713923;82;21870;-44
2021/05/01 05:13:28;;;;;;;11.03;8.88;;;;;;;13.77;83.83;100345.36;1715852;82;21165;-43
2021/05/01 05:15:56;;;;;;;9.40;8.53;;;;;;;13.84;83.83;100351.98;1719289;82;21110;-45
2021/05/01 05:18:23;;;;;;;12.20;8.90;;;;;;;13.90;83.80;100348.83;1718318;82;21102;-42
2021/05/01 05:20:51;;;;;;;10.35;8.65;;;;;;;13.97;83.79;100344.73;1714560;82;21658;-46
2021/05/01 05:23:19;;;;;;;13.48;9.68;;;;;;;14.04;83.77;100345.98;1726084;82;21149;-44
2021/05/01 05:25:47;;;;;;;11.12;9.80;;;;;;;14.12;83.65;100352.60;1719901;82;21157;-42
2021/05/01 05:28:15;;;;;;;10.72;9.18;;;;;;;14.18;83.66;100348.95;1714417;82;21157;-44
2021/05/01 05:30:43;;;;;;;13.35;9.03;;;;;;;14.25;83.62;100344.84;1715638;82;21550;-44
2021/05/01 05:33:10;;;;;;;10.05;8.20;;;;;;;14.33;83.49;100342.91;1719435;82;21569;-42
2021/05/01 05:35:38;;;;;;;10.88;8.25;;;;;;;14.41;83.27;100345.02;1715567;82;21174;-42
2021/05/01 05:38:06;;;;;;;10.80;9.28;;;;;;;14.48;83.07;100349.78;1715882;82;21126;-44
2021/05/01 05:40:34;;;;;;;9.55;8.20;;;;;;;14.55;83.00;100344.00;1721824;82;21155;-43
2021/05/01 05:43:02;;;;;;;9.80;8.80;;;;;;;14.61;82.84;100347.53;1715821;82;21594;-41
2021/05/01 05:45:31;;;;;;;11.28;9.60;;;;;;;14.68;82.66;100352.30;1717625;82;21165;-42
2021/05/01 05:48:00;;;;;;;10.05;8.18;;;;;;;14.76;82.52;100340.97;1721472;82;21168;-43
2021/05/01 05:50:27;;;;;;;10.10;8.40;;;;;;;14.83;82.14;100346.23;1719965;82;21150;-42
2021/05/01 05:52:55;;;;;;;8.98;7.90;;;;;;;14.91;81.83;100347.81;1717694;82;21146;-42
2021/05/01 05:55:26;;;;;;;11.30;8.90;;;;;;;15.00;81.50;100349.44;1721246;82;21207;-44
2021/05/01 05:57:55;;;;;;;10.88;8.15;;;;;;;15.09;80.86;100355.40;1711277;82;21133;-41
2021/05/01 06:00:24;;;;;;;10.13;8.95;;;;;;;15.17;80.59;100358.81;1719784;82;21291;-44
2021/05/01 06:02:54;;;;;;;;;;;;;;;15.25;80.31;100357.25;1719592;82;21126;-49
2021/05/01 06:05:31;;;;;;;9.70;7.83;;;;;;;15.32;80.21;100353.09;1714640;82;20185;-39
2021/05/01 06:07:59;;;;;;;10.58;9.13;;;;;;;15.44;80.04;100355.75;1712918;82;21550;-43
2021/05/01 06:10:28;;;;;;;9.40;7.65;;;;;;;15.54;79.23;100355.37;1715274;82;21161;-43
2021/05/01 06:12:56;;;;;;;8.70;7.47;;;;;;;15.63;78.32;100353.79;1718027;82;21629;-44
2021/05/01 06:15:23;;;;;;;10.25;8.05;;;;;;;15.70;77.11;100355.00;1719466;82;21588;-43
2021/05/01 06:17:52;;;;;;;8.10;7.28;;;;;;;15.79;76.43;100361.83;1710365;82;21574;-42
2021/05/01 06:20:20;;;;;;;10.08;8.18;;;;;;;15.86;75.60;100368.91;1711088;82;21113;-45
2021/05/01 06:22:50;;;;;;;8.10;6.62;;;;;;;15.91;75.29;100365.34;1706223;82;21149;-45
2021/05/01 06:25:18;;;;;;;7.45;6.40;;;;;;;15.96;74.76;100364.97;1712515;82;21617;-44
2021/05/01 06:27:48;;;;;;;8.10;7.05;;;;;;;16.01;74.88;100363.61;1715976;82;21149;-44
2021/05/01 06:30:16;;;;;;;7.67;6.33;;;;;;;16.08;74.95;100357.23;1714017;82;21172;-44
2021/05/01 06:32:46;;;;;;;9.08;7.80;;;;;;;16.14;74.95;100355.36;1713743;82;21178;-39
2021/05/01 06:35:14;;;;;;;8.45;6.37;;;;;;;16.22;74.03;100365.48;1715070;82;21566;-42
2021/05/01 06:37:41;;;;;;;7.67;6.58;;;;;;;16.27;73.05;100361.06;1711000;82;21138;-43
2021/05/01 06:40:14;;;;;;;6.83;5.75;;;;;;;16.33;72.80;100361.88;1708825;82;21141;-40
2021/05/01 06:42:43;;;;;;;8.70;6.47;;;;;;;16.39;72.44;100364.06;1721467;82;21589;-41
2021/05/01 06:45:19;;;;;;;6.97;5.95;;;;;;;16.50;71.98;100369.37;1805486;78;22910;-40
2021/05/01 06:48:04;;;;;;;7.67;6.87;;;;;;;16.53;72.03;100365.56;1773976;80;21164;-42
2021/05/01 06:50:32;;;;;;;7.67;6.45;;;;;;;16.59;71.14;100371.30;1779801;79;21129;-43
2021/05/01 06:53:00;;;;;;;7.70;5.42;;;;;;;16.69;69.52;100377.25;1778489;80;21593;-42
2021/05/01 06:55:31;;;;;;;7.00;5.78;;;;;;;16.73;68.74;100373.28;1770411;79;21170;-41
2021/05/01 06:58:00;;;;;;;8.53;4.47;;;;;;;16.77;68.24;100376.09;1752550;80;21109;-42
2021/05/01 07:00:29;;;;;;;5.85;4.05;;;;;;;16.82;67.22;100373.39;1750208;80;21189;-44
2021/05/01 07:03:05;;;;;;;6.22;4.17;;;;;;;16.90;65.60;100371.88;1739198;80;21157;-46
2021/05/01 07:05:34;;;;;;;5.90;4.50;;;;;;;16.96;63.93;100376.24;1743426;80;21149;-44
2021/05/01 07:08:02;;;;;;;4.55;3.98;;;;;;;17.03;63.92;100369.34;1751624;80;21168;-44
2021/05/01 07:10:30;;;;;;;5.25;3.37;;;;;;;17.09;63.26;100380.06;1745610;80;21140;-45
2021/05/01 07:13:00;;;;;;;4.60;3.37;;;;;;;17.16;60.39;100377.20;1751730;80;21145;-43
2021/05/01 07:15:29;;;;;;;5.28;4.05;;;;;;;17.24;57.84;100376.02;1754771;80;21170;-43
2021/05/01 07:17:57;;;;;;;4.00;3.60;;;;;;;17.36;55.20;100372.75;1754183;81;21145;-42
2021/05/01 07:20:25;;;;;;;5.55;3.70;;;;;;;17.44;55.12;100375.61;1751070;80;21129;-42
2021/05/01 07:22:54;;;;;;;4.97;3.72;;;;;;;17.49;55.01;100373.86;1741092;80;21152;-42
2021/05/01 07:25:23;;;;;;;4.97;4.40;;;;;;;17.56;55.86;100368.75;1741241;80;21130;-42
2021/05/01 07:28:06;;;;;;;5.12;3.90;;;;;;;17.60;56.26;100372.89;1732488;80;21145;-42
2021/05/01 07:30:42;;;;;;;5.95;4.22;;;;;;;17.63;56.41;100373.95;1732518;80;21133;-42
2021/05/01 07:33:25;;;;;;;6.75;4.12;;;;;;;17.65;56.90;100374.67;1747184;80;21149;-44
2021/05/01 07:35:57;;;;;;;6.03;3.50;;;;;;;17.65;56.75;100375.52;1751977;80;21121;-43
2021/05/01 07:38:25;;;;;;;4.87;3.58;;;;;;;17.66;56.16;100373.67;1742359;80;21171;-40
2021/05/01 07:40:54;;;;;;;5.25;4.10;;;;;;;17.65;53.74;100370.63;1753111;80;21164;-43
2021/05/01 07:43:21;;;;;;;5.03;3.77;;;;;;;17.67;53.53;100366.80;1745238;80;21172;-43
2021/05/01 07:45:52;;;;;;;4.65;3.75;;;;;;;17.72;52.94;100363.70;1743028;81;21621;-41
2021/05/01 07:48:20;;;;;;;5.50;3.83;;;;;;;17.77;52.81;100361.94;1746056;81;21151;-43
2021/05/01 07:50:49;;;;;;;4.25;2.98;;;;;;;17.82;52.58;100367.30;1734449;81;21554;-40
2021/05/01 07:53:16;;;;;;;4.20;3.47;;;;;;;17.87;52.28;100368.23;1739907;81;21113;-43
2021/05/01 07:55:44;;;;;;;4.30;3.10;;;;;;;17.90;51.97;100362.55;1736171;81;21191;-43
2021/05/01 07:58:12;;;;;;;5.28;4.28;;;;;;;17.98;50.90;100361.35;1737187;81;21158;-42
2021/05/01 08:00:41;;;;;;;5.25;3.60;;;;;;;18.07;51.24;100361.88;1742115;81;21114;-42
2021/05/01 08:03:08;;;;;;;5.12;3.60;;;;;;;18.13;51.41;100363.98;1741522;81;21547;-43
2021/05/01 08:05:37;;;;;;;5.05;3.92;;;;;;;18.17;50.98;100364.58;1739227;81;21570;-40
2021/05/01 08:08:06;;;;;;;3.98;3.17;;;;;;;18.19;49.92;100368.46;1721264;81;21142;-43
2021/05/01 08:10:34;;;;;;;5.67;3.37;;;;;;;18.16;49.38;100371.80;1738004;81;21130;-42
2021/05/01 08:13:01;;;;;;;4.87;3.50;;;;;;;18.13;49.82;100373.94;1742922;81;21162;-40
2021/05/01 08:15:30;;;;;;;4.17;3.08;;;;;;;18.11;49.98;100376.77;1729636;81;21618;-43
2021/05/01 08:17:59;;;;;;;5.10;4.53;;;;;;;18.12;49.72;100380.34;1743266;81;21138;-40
2021/05/01 08:20:28;;;;;;;7.22;3.80;;;;;;;18.14;49.24;100378.33;1707951;81;21144;-39
2021/05/01 08:22:56;;;;;;;4.00;2.90;;;;;;;18.17;49.25;100375.37;1737748;81;21153;-43
2021/05/01 08:25:24;;;;;;;3.45;2.90;;;;;;;18.22;48.91;100370.41;1727362;81;21561;-43
2021/05/01 08:27:53;;;;;;;3.02;2.60;;;;;;;18.27;48.53;100374.88;1741985;81;21553;-43
2021/05/01 08:30:21;;;;;;;3.08;2.75;;;;;;;18.34;49.00;100381.88;1736550;81;21142;-41
2021/05/01 08:32:49;;;;;;;3.85;3.30;;;;;;;18.42;47.64;100383.40;1745103;81;21150;-42
2021/05/01 08:35:17;;;;;;;4.58;3.25;;;;;;;18.47;46.88;100384.30;1740965;81;21142;-46
2021/05/01 08:37:46;;;;;;;3.52;2.83;;;;;;;18.49;45.57;100379.11;1740008;81;21594;-41
2021/05/01 08:40:14;;;;;;;3.70;3.30;;;;;;;18.49;45.01;100376.91;1735388;81;21144;-41
2021/05/01 08:42:45;;;;;;;4.20;3.35;;;;;;;18.52;43.33;100380.66;1732005;81;21978;-42
2021/05/01 08:45:17;;;;;;;4.12;3.22;;;;;;;18.55;43.44;100379.90;1731926;81;21146;-44
2021/05/01 08:47:47;;;;;;;5.12;2.92;;;;;;;18.62;44.04;100383.36;1736084;80;21703;-43
2021/05/01 08:50:31;;;;;;;4.97;3.20;;;;;;;18.70;44.03;100390.27;1734350;81;21923;-40
2021/05/01 08:52:59;;;;;;;3.33;2.95;;;;;;;18.73;43.22;100389.47;1730517;81;21178;-40
2021/05/01 08:55:30;;;;;;;3.52;2.55;;;;;;;18.74;42.98;100386.27;1735758;81;21185;-44
2021/05/01 08:57:58;;;;;;;3.17;2.67;;;;;;;18.73;43.51;100386.77;1739968;81;21127;-43
2021/05/01 09:00:26;;;;;;;3.45;3.00;;;;;;;18.74;42.80;100380.36;1735985;80;21151;-42
2021/05/01 09:02:54;;;;;;;4.83;2.47;;;;;;;18.78;41.80;100379.62;1742544;81;21556;-42
2021/05/01 09:05:23;;;;;;;4.40;2.60;;;;;;;18.81;41.50;100384.22;1747595;81;21142;-42
2021/05/01 09:07:51;;;;;;;3.47;2.52;;;;;;;18.89;41.44;100378.09;1726957;81;21137;-44
2021/05/01 09:10:19;;;;;;;3.42;2.50;;;;;;;19.03;40.54;100386.25;1737925;81;21135;-41
2021/05/01 09:12:48;;;;;;;5.15;2.65;;;;;;;19.14;40.21;100384.70;1732327;81;21153;-43
2021/05/01 09:15:23;;;;;;;4.15;3.15;;;;;;;19.22;39.60;100380.75;1735208;81;21211;-41
2021/05/01 09:18:00;;;;;;;3.62;2.35;;;;;;;19.29;39.34;100386.43;1727696;81;21166;-43
2021/05/01 09:20:29;;;;;;;2.87;2.37;;;;;;;19.34;40.03;100387.34;1738853;81;21145;-40
2021/05/01 09:23:07;;;;;;;3.40;2.58;;;;;;;19.38;39.28;100380.65;1739063;80;21292;-42
2021/05/01 09:25:59;;;;;;;3.65;2.42;;;;;;;19.43;39.74;100375.65;1739488;80;21457;-41
2021/05/01 09:28:42;;;;;;;3.50;2.65;;;;;;;19.51;39.34;100380.30;1737114;80;21155;-42
2021/05/01 09:31:14;;;;;;;3.85;3.17;;;;;;;19.56;37.31;100380.20;1734270;81;21462;-42
2021/05/01 09:33:51;;;;;;;5.83;3.35;;;;;;;19.58;38.30;100374.62;1739457;81;21523;-42
2021/05/01 09:36:21;;;;;;;5.00;3.37;;;;;;;19.60;38.49;100376.68;1737852;81;21136;-42
2021/05/01 09:38:51;;;;;;;5.20;2.87;;;;;;;19.64;38.87;100382.15;1739580;81;21135;-41
2021/05/01 09:41:26;;;;;;;4.12;3.10;;;;;;;19.68;37.10;100378.19;1734617;81;21474;-44
2021/05/01 09:44:17;;;;;;;4.40;2.83;;;;;;;19.75;38.08;100374.35;1743319;81;21684;-44
2021/05/01 09:46:49;;;;;;;5.08;3.30;;;;;;;19.80;37.16;100371.53;1727059;81;21144;-43
2021/05/01 09:49:28;;;;;;;4.90;2.55;;;;;;;19.85;37.82;100382.75;1749190;80;21573;-42
2021/05/01 09:52:01;;;;;;;3.30;2.70;;;;;;;19.90;36.54;100380.95;1707844;82;21157;-42
2021/05/01 09:54:37;;;;;;;3.42;2.35;;;;;;;19.91;36.61;100382.67;1705642;82;21174;-40
2021/05/01 09:57:08;;;;;;;3.55;3.08;;;;;;;19.93;36.17;100374.38;1721616;83;21618;-45
2021/05/01 09:59:55;;;;;;;3.42;2.75;;;;;;;19.95;36.99;100372.37;1697198;83;21147;-43
2021/05/01 10:02:34;;;;;;;3.87;2.62;;;;;;;19.97;36.70;100363.61;1678913;84;21141;-46
2021/05/01 10:05:11;;;;;;;3.87;2.65;;;;;;;20.04;36.52;100370.12;1677663;84;21158;-43
2021/05/01 10:07:42;;;;;;;2.67;2.42;;;;;;;20.08;35.13;100367.43;1702203;83;21165;-43
2021/05/01 10:10:10;;;;;;;3.95;2.40;;;;;;;20.13;35.41;100365.11;1694832;82;21153;-45
2021/05/01 10:12:43;;;;;;;2.22;1.87;;;;;;;20.20;35.88;100362.65;1709531;82;21464;-46
2021/05/01 10:15:18;;;;;;;2.92;2.08;;;;;;;20.28;36.14;100367.62;1694852;83;21133;-46
2021/05/01 10:17:47;;;;;;;3.17;2.58;;;;;;;20.36;36.18;100362.81;1697469;83;21189;-45
2021/05/01 10:20:15;;;;;;;3.55;2.50;;;;;;;20.44;35.68;100360.17;1695975;83;21142;-45
2021/05/01 10:22:44;;;;;;;3.98;2.58;;;;;;;20.48;35.05;100359.34;1690768;83;21162;-44
2021/05/01 10:25:20;;;;;;;3.65;2.27;;;;;;;20.52;33.79;100358.03;1685053;83;21161;-45
2021/05/01 10:30:39;;;;;;;2.62;2.35;;;;;;;20.58;32.14;100360.64;1687488;84;21142;-46
2021/05/01 10:33:33;;;;;;;3.80;2.75;;;;;;;20.62;34.43;100358.82;1893136;74;22779;-47
2021/05/01 10:36:18;;;;;;;3.77;2.52;;;;;;;20.61;32.81;100357.09;1859543;75;21180;-46
2021/05/01 10:38:58;;;;;;;3.30;2.33;;;;;;;20.60;32.29;100357.27;1806752;77;21135;-45
2021/05/01 10:41:29;;;;;;;3.22;2.30;;;;;;;20.63;34.06;100360.50;1796786;77;21148;-44
2021/05/01 10:43:56;;;;;;;2.62;1.95;;;;;;;20.71;34.46;100363.78;1799917;77;21136;-47
2021/05/01 10:46:28;;;;;;;5.60;2.40;;;;;;;20.77;34.52;100360.45;1789605;78;21165;-40
2021/05/01 10:48:58;;;;;;;4.75;2.55;;;;;;;20.81;34.11;100362.33;1786052;78;21411;-43
2021/05/01 10:51:28;;;;;;;3.10;2.52;;;;;;;20.75;33.66;100365.17;1794571;78;21176;-44
2021/05/01 10:54:18;;;;;;;5.05;2.67;;;;;;;20.69;35.14;100366.66;1781417;78;21193;-41
2021/05/01 10:56:49;;;;;;;3.22;2.62;;;;;;;20.70;35.90;100364.29;1709750;81;21166;-43
2021/05/01 10:59:42;;;;;;;3.95;2.92;;;;;;;20.77;36.73;100360.97;1871837;74;28173;-43
2021/05/01 11:02:15;;;;;;;3.45;2.95;;;;;;;20.77;36.26;100360.45;1839639;77;21149;-41
2021/05/01 11:04:48;;;;;;;5.45;3.37;;;;;;;20.82;35.89;100351.86;1846544;75;21965;-42
2021/05/01 11:07:39;;;;;;;3.60;2.50;;;;;;;20.84;36.45;100347.09;1852791;75;21089;-46
2021/05/01 11:10:09;;;;;;;3.65;2.12;;;;;;;20.87;36.88;100346.30;1803795;78;21180;-41
2021/05/01 11:12:38;;;;;;;5.10;2.70;;;;;;;20.96;37.34;100347.18;1754706;79;21160;-43
2021/05/01 11:15:10;;;;;;;3.98;2.40;;;;;;;21.04;36.44;100343.19;1794116;77;21146;-43
2021/05/01 11:17:50;;;;;;;3.75;2.70;;;;;;;21.08;35.32;100343.19;1801756;77;21405;-49
2021/05/01 11:20:18;;;;;;;3.00;2.70;;;;;;;21.08;36.15;100351.83;1802761;78;21153;-44
2021/05/01 11:22:52;;;;;;;3.55;2.72;;;;;;;21.09;36.50;100350.33;1786682;78;21133;-43
2021/05/01 11:25:22;;;;;;;3.62;2.20;;;;;;;21.14;36.36;100346.63;1796935;78;21188;-48
2021/05/01 11:27:51;;;;;;;3.20;2.52;;;;;;;21.19;36.24;100343.41;1782008;79;21140;-40
2021/05/01 11:30:27;;;;;;;4.20;2.83;;;;;;;21.23;36.10;100338.02;1775496;79;21140;-43
2021/05/01 11:32:55;;;;;;;5.45;2.50;;;;;;;21.24;35.20;100338.86;1783182;78;21188;-41
2021/05/01 11:35:24;;;;;;;3.60;3.12;;;;;;;21.18;35.27;100332.23;1787326;78;21141;-47
2021/05/01 11:37:59;;;;;;;2.75;2.30;;;;;;;21.15;35.25;100333.41;1786851;78;21204;-45
2021/05/01 11:40:29;;;;;;;4.40;3.08;;;;;;;21.15;35.53;100323.08;1840913;76;21565;-47